»·PEaware :: WAT1418 KPDX-KLAS

WAT1418 :: KPDX-KLAS

FLIGHT INFORMATION

Flight Status: Arrived
Operator:
Walker Air Transport
More flights by this operator :: More flights under this callsign
Pilot: Robin K. (36346)
Aircraft: BOEING 737-900
(B739)
More flights by this aircraft type
Origin: KPDX Portland Intl
United States
Destination: KLAS Harry Reid Intl
United States
More flights between these airports :: More routes between these airports
Route: CASCD2 CHISM PUHTS PAWLI Q13 LOMIA TQILA COKTL3
File this flight plan on PilotEdge
Remarks: RWY reposition approved by Ops, unable vis approaches.
Altitude:
(Current/Filed)
35,000ft
Speed:
(Current/Filed)
443kts
Departed: 17-Oct-23 11:37 AM
Arrived: 17-Oct-23 01:17 PM
Distance/Time
Traveled:
663nm/1:40
Distance/Time
To Go:
Arrived

Flight Plot

Page will automatically refresh every two minutes.

Flight plan parsing failed; only flown route is shown


Map Options




Map Legend


Flown Route
Filed Route
Departure Airport
Arrival Airport
Navaid (VOR, NDB)
Fix

Horizontal Profiles

Position Reports

Time Latitude Longitude Heading Altitude Ground
Speed
17-Oct-23 11:16 45.589330 -122.599059 42 30ft 0kts
17-Oct-23 11:16 45.589330 -122.599059 42 30ft 0kts
17-Oct-23 11:17 45.589330 -122.599059 42 30ft 0kts
17-Oct-23 11:18 45.589330 -122.599059 42 30ft 0kts
17-Oct-23 11:19 45.589330 -122.599059 42 30ft 0kts
17-Oct-23 11:21 45.589330 -122.599059 42 30ft 0kts
17-Oct-23 11:21 45.589330 -122.599059 42 30ft 0kts
17-Oct-23 11:22 45.589330 -122.599059 42 30ft 0kts
17-Oct-23 11:23 45.589330 -122.599059 42 30ft 0kts
17-Oct-23 11:24 45.589330 -122.599059 42 30ft 0kts
17-Oct-23 11:25 45.589330 -122.599059 42 32ft 0kts
17-Oct-23 11:26 45.589330 -122.599059 42 32ft 0kts
17-Oct-23 11:27 45.589330 -122.599059 42 32ft 0kts
17-Oct-23 11:28 45.589330 -122.599059 42 32ft 0kts
17-Oct-23 11:29 45.589330 -122.599059 42 32ft 0kts
17-Oct-23 11:30 45.589330 -122.599059 42 32ft 0kts
17-Oct-23 11:31 45.589330 -122.599059 42 32ft 0kts
17-Oct-23 11:32 45.589330 -122.599059 42 32ft 0kts
17-Oct-23 11:33 45.589330 -122.599059 42 32ft 0kts
17-Oct-23 11:34 45.589330 -122.599059 42 32ft 0kts
17-Oct-23 11:35 45.596397 -122.599747 119 38ft 0kts
17-Oct-23 11:36 45.591602 -122.587502 119 42ft 149kts
17-Oct-23 11:37 45.576395 -122.523471 104 2301ft 222kts
17-Oct-23 11:38 45.559450 -122.426161 106 5208ft 269kts
17-Oct-23 11:39 45.534244 -122.320376 137 8296ft 297kts
17-Oct-23 11:40 45.458056 -122.266060 173 10661ft 338kts
17-Oct-23 11:41 45.363141 -122.239685 173 13676ft 353kts
17-Oct-23 11:42 45.264765 -122.211090 173 16366ft 369kts
17-Oct-23 11:43 45.162203 -122.181157 173 18914ft 383kts
17-Oct-23 11:44 45.056453 -122.147465 158 21102ft 404kts
17-Oct-23 11:45 44.960046 -122.059093 150 23158ft 422kts
17-Oct-23 11:46 44.859494 -121.967152 151 24891ft 437kts
17-Oct-23 11:47 44.756077 -121.873302 150 26565ft 451kts
17-Oct-23 11:48 44.648885 -121.776439 150 28194ft 464kts
17-Oct-23 11:49 44.538650 -121.677254 150 29627ft 478kts
17-Oct-23 11:50 44.424819 -121.575339 150 30884ft 492kts
17-Oct-23 11:51 44.308324 -121.471487 150 32197ft 499kts
17-Oct-23 11:52 44.190675 -121.367130 150 33490ft 504kts
17-Oct-23 11:53 44.071511 -121.261932 150 34661ft 508kts
17-Oct-23 11:54 43.951686 -121.156638 150 35254ft 512kts
17-Oct-23 11:55 43.824098 -121.083098 176 35222ft 491kts
17-Oct-23 11:56 43.688579 -121.052244 176 35201ft 496kts
17-Oct-23 11:57 43.551795 -121.019486 175 35196ft 499kts
17-Oct-23 11:58 43.415380 -120.986860 175 35191ft 498kts
17-Oct-23 11:59 43.279173 -120.954483 175 35187ft 495kts
17-Oct-23 12:00 43.144720 -120.913806 162 35186ft 500kts
17-Oct-23 12:01 43.016014 -120.841626 161 35193ft 500kts
17-Oct-23 12:02 42.886891 -120.770837 161 35184ft 499kts
17-Oct-23 12:03 42.757810 -120.700910 161 35179ft 499kts
17-Oct-23 12:04 42.628498 -120.631104 161 35144ft 501kts
17-Oct-23 12:05 42.499290 -120.561659 160 35174ft 502kts
17-Oct-23 12:06 42.369097 -120.491987 160 35229ft 503kts
17-Oct-23 12:07 42.239049 -120.422703 160 35302ft 502kts
17-Oct-23 12:08 42.109152 -120.353814 160 35304ft 501kts
17-Oct-23 12:09 41.979869 -120.285550 160 35252ft 500kts
17-Oct-23 12:10 41.850123 -120.217341 160 35182ft 500kts
17-Oct-23 12:11 41.720644 -120.149560 160 35169ft 499kts
17-Oct-23 12:12 41.591174 -120.082079 160 35166ft 499kts
17-Oct-23 12:13 41.461861 -120.014951 160 35162ft 499kts
17-Oct-23 12:14 41.330717 -119.956242 164 35137ft 499kts
17-Oct-23 12:15 41.198337 -119.902295 164 35157ft 497kts
17-Oct-23 12:16 41.065961 -119.847491 164 35148ft 498kts
17-Oct-23 12:17 40.933898 -119.792991 163 35138ft 498kts
17-Oct-23 12:18 40.801425 -119.738582 163 35141ft 497kts
17-Oct-23 12:19 40.669121 -119.684471 163 35130ft 498kts
17-Oct-23 12:20 40.537511 -119.630862 163 35119ft 496kts
17-Oct-23 12:21 40.405427 -119.577286 163 35116ft 496kts
17-Oct-23 12:22 40.274357 -119.524335 163 35108ft 494kts
17-Oct-23 12:23 40.142794 -119.471403 163 35119ft 494kts
17-Oct-23 12:24 40.011701 -119.418875 163 35098ft 494kts
17-Oct-23 12:25 39.880338 -119.366442 163 35112ft 492kts
17-Oct-23 12:26 39.749081 -119.314269 162 35105ft 495kts
17-Oct-23 12:27 39.617060 -119.261995 162 35096ft 497kts
17-Oct-23 12:28 39.484817 -119.209841 162 35092ft 498kts
17-Oct-23 12:29 39.352388 -119.157816 162 35093ft 497kts
17-Oct-23 12:30 39.221683 -119.099974 148 35088ft 494kts
17-Oct-23 12:31 39.116430 -118.990594 134 35090ft 486kts
17-Oct-23 12:32 39.014977 -118.875482 135 35090ft 487kts
17-Oct-23 12:33 38.912802 -118.761290 135 35095ft 486kts
17-Oct-23 12:34 38.810761 -118.647695 134 35138ft 485kts
17-Oct-23 12:35 38.708944 -118.534767 134 35189ft 485kts
17-Oct-23 12:36 38.607014 -118.422161 135 35190ft 483kts
17-Oct-23 12:37 38.505335 -118.310252 135 35148ft 482kts
17-Oct-23 12:38 38.403273 -118.198359 135 35070ft 483kts
17-Oct-23 12:39 38.301329 -118.087036 135 35057ft 483kts
17-Oct-23 12:40 38.199144 -117.975865 135 35049ft 482kts
17-Oct-23 12:41 38.097451 -117.865652 135 35055ft 481kts
17-Oct-23 12:42 37.995637 -117.755732 135 35041ft 479kts
17-Oct-23 12:43 37.894054 -117.646471 136 35042ft 479kts
17-Oct-23 12:44 37.792726 -117.537891 136 35043ft 477kts
17-Oct-23 12:45 37.691355 -117.429657 136 35037ft 477kts
17-Oct-23 12:46 37.589720 -117.321547 136 35033ft 476kts
17-Oct-23 12:47 37.488426 -117.214165 136 35017ft 475kts
17-Oct-23 12:48 37.380619 -117.117626 143 35012ft 477kts
17-Oct-23 12:49 37.271522 -117.023086 142 35005ft 476kts
17-Oct-23 12:50 37.162513 -116.928794 142 34997ft 475kts
17-Oct-23 12:51 37.053559 -116.834894 142 34991ft 475kts
17-Oct-23 12:52 36.944770 -116.741500 142 34981ft 474kts
17-Oct-23 12:53 36.836086 -116.648475 143 34822ft 476kts
17-Oct-23 12:54 36.725013 -116.553719 144 31691ft 485kts
17-Oct-23 12:55 36.621110 -116.450813 129 28767ft 468kts
17-Oct-23 12:56 36.538908 -116.332428 131 26347ft 432kts
17-Oct-23 12:57 36.461284 -116.223021 132 24144ft 415kts
17-Oct-23 12:58 36.385467 -116.116588 132 21803ft 403kts
17-Oct-23 12:59 36.312373 -116.014216 132 19667ft 390kts
17-Oct-23 13:00 36.245960 -115.921186 131 18849ft 335kts
17-Oct-23 13:01 36.189403 -115.831100 129 17641ft 334kts
17-Oct-23 13:02 36.134762 -115.739614 114 16333ft 326kts
17-Oct-23 13:03 36.103072 -115.635389 111 15130ft 323kts
17-Oct-23 13:04 36.071372 -115.531988 111 13936ft 320kts
17-Oct-23 13:05 36.039960 -115.430505 111 12700ft 308kts
17-Oct-23 13:06 36.013934 -115.331869 94 11580ft 300kts
17-Oct-23 13:07 36.009135 -115.229642 93 10493ft 297kts
17-Oct-23 13:08 36.003594 -115.130307 94 9379ft 277kts
17-Oct-23 13:09 35.999046 -115.043057 91 8370ft 242kts
17-Oct-23 13:10 35.998872 -114.959180 91 7170ft 245kts
17-Oct-23 13:11 36.032840 -114.900711 4 5872ft 220kts
17-Oct-23 13:12 36.071307 -114.941956 277 4875ft 199kts
17-Oct-23 13:13 36.073857 -115.005022 269 3958ft 173kts
17-Oct-23 13:14 36.073749 -115.060258 271 3225ft 156kts
17-Oct-23 13:15 36.073672 -115.112775 269 2336ft 150kts
17-Oct-23 13:16 36.073635 -115.147187 269 2123ft 0kts

Navigation Log

Ident Type
Flight plan parsing failed, navigation log unavailable